Time;durP1;ratioP1;P1;durP2;ratioP2;P2;SDS_P1;SDS_P2;PMS_P1;PMS_P2;Temp;Humidity;BMP_temperature;BMP_pressure;BME280_temperature;BME280_humidity;BME280_pressure;Samples;Min_cycle;Max_cycle;Signal;HPM_P1;HPM_P2
2021/10/21 00:00:29;;;;;;;19.50;10.20;;;16.40;91.00;;;;;;6251870;28;20512;-81
2021/10/21 00:03:30;;;;;;;16.00;10.23;;;16.30;91.10;;;;;;6252768;28;20820;-81
2021/10/21 00:06:34;;;;;;;20.70;11.73;;;16.30;91.10;;;;;;6252086;28;20415;-81
2021/10/21 00:09:35;;;;;;;17.30;10.50;;;16.30;91.20;;;;;;6251093;28;20419;-82
2021/10/21 00:12:39;;;;;;;17.65;10.63;;;16.30;91.30;;;;;;6251610;28;20422;-84
2021/10/21 00:15:41;;;;;;;15.45;9.93;;;16.30;91.30;;;;;;6253868;28;21074;-81
2021/10/21 00:18:43;;;;;;;17.07;10.03;;;16.30;91.30;;;;;;6254445;28;20785;-81
2021/10/21 00:21:48;;;;;;;17.70;10.85;;;16.30;91.30;;;;;;6252229;28;20411;-81
2021/10/21 00:24:50;;;;;;;15.35;10.00;;;16.20;91.30;;;;;;6252119;28;20407;-81
2021/10/21 00:27:51;;;;;;;17.38;10.25;;;16.30;91.30;;;;;;6251903;28;20525;-81
2021/10/21 00:30:53;;;;;;;14.27;9.45;;;16.20;91.30;;;;;;6252226;28;20434;-81
2021/10/21 00:33:55;;;;;;;16.95;8.65;;;16.20;91.40;;;;;;6251860;28;20419;-81
2021/10/21 00:36:58;;;;;;;12.27;8.55;;;16.20;91.30;;;;;;6252006;28;20766;-81
2021/10/21 00:40:00;;;;;;;13.63;8.77;;;16.30;91.30;;;;;;6239886;28;20518;-81
2021/10/21 00:43:02;;;;;;;15.77;8.87;;;16.30;91.30;;;;;;6252615;28;20494;-81
2021/10/21 00:46:06;;;;;;;12.63;8.63;;;16.30;91.10;;;;;;6251865;28;20909;-81
2021/10/21 00:49:08;;;;;;;11.65;7.78;;;16.30;91.10;;;;;;6252273;28;20427;-81
2021/10/21 00:52:12;;;;;;;11.73;8.18;;;16.30;91.00;;;;;;6244835;28;20397;-81
2021/10/21 00:55:16;;;;;;;11.32;6.97;;;16.30;91.10;;;;;;6245432;28;20427;-81
2021/10/21 00:58:17;;;;;;;12.43;7.37;;;16.30;91.10;;;;;;6253398;28;20419;-81
2021/10/21 01:01:19;;;;;;;14.48;8.10;;;16.30;91.20;;;;;;6252385;28;20478;-81
2021/10/21 01:04:21;;;;;;;15.43;8.63;;;16.30;91.20;;;;;;6253760;28;20434;-80
2021/10/21 01:07:24;;;;;;;12.43;8.80;;;16.40;91.20;;;;;;6253988;28;20445;-81
2021/10/21 01:10:26;;;;;;;15.23;9.27;;;16.40;91.10;;;;;;6253519;28;20418;-81
2021/10/21 01:13:28;;;;;;;11.85;8.25;;;16.40;91.10;;;;;;6252976;28;20443;-82
2021/10/21 01:16:30;;;;;;;14.38;9.60;;;16.40;91.10;;;;;;6255533;28;20465;-83
2021/10/21 01:19:32;;;;;;;13.75;8.85;;;16.40;91.10;;;;;;6255342;28;20442;-81
2021/10/21 01:22:36;;;;;;;15.63;9.23;;;16.40;91.20;;;;;;6255412;28;20422;-82
2021/10/21 01:25:38;;;;;;;18.02;9.75;;;16.50;91.20;;;;;;6255190;28;20410;-82
2021/10/21 01:28:40;;;;;;;12.48;9.05;;;16.50;91.20;;;;;;6254418;28;20530;-82
2021/10/21 01:31:42;;;;;;;10.90;8.65;;;16.50;91.10;;;;;;6255292;28;20435;-81
2021/10/21 01:34:44;;;;;;;12.50;8.67;;;16.60;91.10;;;;;;6263092;28;20411;-80
2021/10/21 01:37:47;;;;;;;11.93;8.10;;;16.60;91.10;;;;;;6261615;28;20531;-82
2021/10/21 01:40:49;;;;;;;9.98;6.43;;;16.60;91.10;;;;;;6255324;28;20429;-81
2021/10/21 01:43:51;;;;;;;7.22;5.47;;;16.70;91.00;;;;;;6255534;28;20480;-81
2021/10/21 01:46:52;;;;;;;7.33;4.20;;;16.70;90.90;;;;;;6256174;28;20438;-80
2021/10/21 01:49:54;;;;;;;4.90;4.38;;;16.70;90.80;;;;;;6256768;28;20418;-81
2021/10/21 01:52:58;;;;;;;5.72;3.75;;;16.70;90.70;;;;;;6254453;28;20418;-81
2021/10/21 01:56:00;;;;;;;5.95;3.25;;;16.70;90.70;;;;;;6234056;28;20532;-80
2021/10/21 01:59:02;;;;;;;3.58;2.95;;;16.70;90.40;;;;;;6232632;28;20437;-81
2021/10/21 02:02:03;;;;;;;3.95;3.13;;;16.70;90.10;;;;;;6233237;28;20427;-80
2021/10/21 02:05:06;;;;;;;3.17;2.78;;;16.70;90.10;;;;;;6232311;28;20767;-81
2021/10/21 02:08:09;;;;;;;2.78;2.58;;;16.70;90.00;;;;;;6233810;28;20523;-80
2021/10/21 02:11:11;;;;;;;3.13;2.38;;;16.70;89.90;;;;;;6232673;28;20925;-80
2021/10/21 02:14:13;;;;;;;4.00;2.70;;;16.80;89.70;;;;;;6246169;28;20418;-81
2021/10/21 02:17:15;;;;;;;3.00;2.70;;;16.80;89.40;;;;;;6256716;28;20425;-81
2021/10/21 02:20:18;;;;;;;4.32;2.65;;;16.80;89.10;;;;;;6256189;28;20473;-81
2021/10/21 02:23:21;;;;;;;4.18;2.70;;;16.80;89.00;;;;;;6256361;28;20564;-80
2021/10/21 02:26:23;;;;;;;3.88;3.47;;;16.90;89.30;;;;;;6254386;28;20493;-79
2021/10/21 02:29:25;;;;;;;3.08;2.78;;;16.90;89.80;;;;;;6256426;28;20435;-80
2021/10/21 02:32:27;;;;;;;3.83;3.23;;;16.80;89.80;;;;;;6257072;28;20407;-79
2021/10/21 02:35:29;;;;;;;4.25;3.78;;;16.80;90.00;;;;;;6260479;28;20469;-79
2021/10/21 02:38:32;;;;;;;4.00;3.60;;;16.80;90.20;;;;;;6260033;28;20419;-81
2021/10/21 02:41:34;;;;;;;4.33;3.50;;;16.70;90.20;;;;;;6260247;28;20418;-81
2021/10/21 02:44:36;;;;;;;5.07;3.75;;;16.70;90.20;;;;;;6261381;28;20493;-81
2021/10/21 02:47:38;;;;;;;5.10;3.90;;;16.70;90.20;;;;;;6261110;28;20517;-81
2021/10/21 02:50:39;;;;;;;4.85;3.22;;;16.70;90.20;;;;;;6261695;28;20482;-81
2021/10/21 02:53:42;;;;;;;3.80;2.80;;;16.70;89.70;;;;;;6260372;28;20429;-81
2021/10/21 02:56:44;;;;;;;4.55;3.38;;;16.70;88.70;;;;;;6246722;28;20488;-81
2021/10/21 02:59:46;;;;;;;4.10;3.33;;;16.70;89.10;;;;;;6236601;28;20443;-82
2021/10/21 03:02:48;;;;;;;5.35;3.67;;;16.70;89.50;;;;;;6236701;28;20891;-81
2021/10/21 03:05:49;;;;;;;3.88;3.58;;;16.70;89.50;;;;;;6238930;28;20417;-81
2021/10/21 03:08:53;;;;;;;4.18;2.83;;;16.70;89.40;;;;;;6237490;28;20413;-81
2021/10/21 03:11:54;;;;;;;4.00;2.65;;;16.70;88.90;;;;;;6238934;28;20862;-81
2021/10/21 03:14:56;;;;;;;4.25;2.03;;;16.70;87.80;;;;;;6258697;28;20473;-80
2021/10/21 03:17:58;;;;;;;2.60;1.60;;;16.60;85.50;;;;;;6263903;28;20419;-80
2021/10/21 03:21:00;;;;;;;1.85;1.48;;;16.50;84.70;;;;;;6263036;28;20865;-79
2021/10/21 03:24:03;;;;;;;2.28;1.25;;;16.50;81.70;;;;;;6265490;28;20431;-81
2021/10/21 03:27:05;;;;;;;5.55;1.17;;;16.40;79.80;;;;;;6269813;28;20445;-80
2021/10/21 03:30:08;;;;;;;3.03;1.02;;;16.40;77.50;;;;;;6256078;28;20835;-80
2021/10/21 03:33:10;;;;;;;2.90;0.77;;;16.40;75.50;;;;;;6257564;28;20415;-80
2021/10/21 03:36:12;;;;;;;1.23;0.77;;;16.40;74.30;;;;;;6257050;28;20411;-80
2021/10/21 03:39:15;;;;;;;6.10;1.45;;;16.40;73.30;;;;;;6257474;28;20441;-80
2021/10/21 03:42:17;;;;;;;3.05;0.95;;;16.50;71.00;;;;;;6257645;28;20421;-78
2021/10/21 03:45:19;;;;;;;3.13;1.00;;;16.60;67.40;;;;;;6256532;28;20430;-79
2021/10/21 03:48:21;;;;;;;3.90;1.30;;;16.60;64.20;;;;;;6256401;28;20434;-79
2021/10/21 03:51:22;;;;;;;1.63;0.63;;;16.70;63.70;;;;;;6255222;28;20678;-78
2021/10/21 03:54:25;;;;;;;3.90;1.03;;;16.60;62.50;;;;;;6255367;28;20415;-79
2021/10/21 03:57:27;;;;;;;9.68;1.73;;;16.70;60.70;;;;;;6248289;28;21055;-78
2021/10/21 04:00:29;;;;;;;9.90;2.30;;;16.80;58.80;;;;;;6254811;28;20482;-79
2021/10/21 04:03:31;;;;;;;8.15;1.45;;;16.80;59.10;;;;;;6237700;28;20437;-78
2021/10/21 04:06:35;;;;;;;11.23;1.25;;;16.70;59.10;;;;;;6230484;28;20899;-79
2021/10/21 04:09:38;;;;;;;7.03;1.17;;;16.60;58.00;;;;;;6231270;28;20914;-79
2021/10/21 04:12:40;;;;;;;4.13;1.10;;;16.60;58.40;;;;;;6231825;28;20409;-79
2021/10/21 04:15:42;;;;;;;3.70;1.27;;;16.50;58.80;;;;;;6254697;28;20442;-79
2021/10/21 04:18:44;;;;;;;3.53;0.90;;;16.50;59.20;;;;;;6256432;28;20905;-78
2021/10/21 04:21:46;;;;;;;10.38;1.73;;;16.50;59.20;;;;;;6256885;28;20549;-78
2021/10/21 04:24:49;;;;;;;5.22;1.60;;;16.50;60.00;;;;;;6254959;28;20503;-79
2021/10/21 04:27:51;;;;;;;15.55;1.83;;;16.50;59.60;;;;;;6254680;28;20905;-79
2021/10/21 04:30:52;;;;;;;6.97;1.17;;;16.50;59.20;;;;;;6255653;28;20924;-79
2021/10/21 04:33:54;;;;;;;8.65;1.15;;;16.50;59.10;;;;;;6255201;28;20506;-78
2021/10/21 04:36:56;;;;;;;8.20;2.28;;;16.40;59.40;;;;;;6255716;28;20411;-79
2021/10/21 04:39:59;;;;;;;10.80;1.75;;;16.40;58.90;;;;;;6254838;28;20505;-79
2021/10/21 04:43:01;;;;;;;6.22;2.17;;;16.40;59.00;;;;;;6257300;28;20451;-78
2021/10/21 04:46:03;;;;;;;4.93;1.25;;;16.30;58.60;;;;;;6256443;28;20490;-79
2021/10/21 04:49:05;;;;;;;8.20;1.50;;;16.30;58.10;;;;;;6253962;28;20421;-79
2021/10/21 04:52:07;;;;;;;6.15;1.80;;;16.30;58.60;;;;;;6253193;28;20975;-80
2021/10/21 04:55:10;;;;;;;4.43;1.15;;;16.30;58.00;;;;;;6254406;28;20445;-80
2021/10/21 04:58:11;;;;;;;7.50;1.55;;;16.30;57.80;;;;;;6242542;28;20774;-79
2021/10/21 05:01:13;;;;;;;4.87;1.60;;;16.30;58.70;;;;;;6267997;28;20934;-78
2021/10/21 05:04:15;;;;;;;14.50;2.70;;;16.30;57.90;;;;;;6278150;28;20409;-79
2021/10/21 05:07:17;;;;;;;9.13;1.63;;;16.30;57.70;;;;;;6276184;28;20445;-79
2021/10/21 05:10:20;;;;;;;8.77;1.90;;;16.30;58.00;;;;;;6256103;28;20941;-80
2021/10/21 05:13:22;;;;;;;5.03;1.80;;;16.30;57.60;;;;;;6247639;28;20482;-80
2021/10/21 05:16:23;;;;;;;5.20;1.95;;;16.30;57.20;;;;;;6252712;28;20403;-80
2021/10/21 05:19:25;;;;;;;9.55;2.40;;;16.30;57.20;;;;;;6254595;28;20442;-79
2021/10/21 05:22:27;;;;;;;14.52;2.03;;;16.40;56.50;;;;;;6254967;28;21027;-80
2021/10/21 05:25:30;;;;;;;21.90;2.20;;;16.40;55.80;;;;;;6251158;28;20421;-78
2021/10/21 05:28:32;;;;;;;6.32;2.10;;;16.40;56.20;;;;;;6248393;28;20490;-78
2021/10/21 05:31:34;;;;;;;6.45;2.05;;;16.40;55.90;;;;;;6252727;28;20435;-78
2021/10/21 05:34:37;;;;;;;2.20;1.40;;;16.40;55.40;;;;;;6250889;28;20629;-78
2021/10/21 05:37:38;;;;;;;6.40;1.77;;;16.50;55.70;;;;;;6249274;28;20455;-78
2021/10/21 05:40:42;;;;;;;7.18;1.65;;;16.50;55.20;;;;;;6252134;28;20443;-79
2021/10/21 05:43:44;;;;;;;5.22;1.85;;;16.40;55.40;;;;;;6252588;28;20422;-78
2021/10/21 05:46:49;;;;;;;9.63;2.83;;;16.30;55.10;;;;;;6252328;28;20411;-78
2021/10/21 05:49:50;;;;;;;7.82;1.92;;;16.40;55.80;;;;;;6252877;28;20478;-80
2021/10/21 05:52:52;;;;;;;;;;;16.40;55.10;;;;;;6253243;28;20915;-79
2021/10/21 05:55:55;;;;;;;7.03;1.77;;;16.40;55.00;;;;;;6252814;28;20812;-80
2021/10/21 05:58:57;;;;;;;4.77;1.60;;;16.40;55.40;;;;;;6236639;28;20848;-79
2021/10/21 06:01:59;;;;;;;5.73;1.57;;;16.40;55.20;;;;;;6228635;28;20416;-81
2021/10/21 06:05:00;;;;;;;;;;;16.40;55.10;;;;;;6231479;28;20413;-78
2021/10/21 06:08:02;;;;;;;;;;;16.10;56.30;;;;;;6230650;28;20454;-79
2021/10/21 06:11:05;;;;;;;;;;;16.00;56.50;;;;;;6230554;28;20439;-78
2021/10/21 06:14:06;;;;;;;;;;;15.80;57.50;;;;;;6245480;28;19968;-78
2021/10/21 06:17:08;;;;;;;;;;;15.60;58.70;;;;;;6255923;28;19921;-79
2021/10/21 06:20:13;;;;;;;;;;;15.40;58.80;;;;;;6255482;28;19929;-78
2021/10/21 06:23:15;;;;;;;;;;;15.30;58.50;;;;;;6255114;28;20426;-78
2021/10/21 06:26:18;;;;;;;3.05;1.50;;;15.20;58.60;;;;;;6255921;28;20435;-77
2021/10/21 06:29:20;;;;;;;3.90;1.50;;;15.20;58.00;;;;;;6254636;28;20415;-78
2021/10/21 06:32:21;;;;;;;7.03;2.35;;;15.30;58.10;;;;;;6253951;28;20407;-78
2021/10/21 06:35:23;;;;;;;8.15;1.38;;;15.40;57.30;;;;;;6254105;28;20580;-78
2021/10/21 06:38:25;;;;;;;8.90;1.90;;;15.70;56.70;;;;;;6246471;28;20516;-78
2021/10/21 06:41:28;;;;;;;6.70;1.30;;;16.00;56.10;;;;;;6228876;28;20787;-78
2021/10/21 06:44:30;;;;;;;7.65;1.60;;;16.20;55.60;;;;;;6235640;28;20421;-78
2021/10/21 06:47:33;;;;;;;6.03;1.38;;;16.20;55.20;;;;;;6247080;28;20427;-78
2021/10/21 06:50:35;;;;;;;6.33;1.60;;;16.30;54.50;;;;;;6255048;28;20511;-78
2021/10/21 06:53:37;;;;;;;6.57;1.55;;;16.40;54.90;;;;;;6247998;28;20415;-78
2021/10/21 06:56:40;;;;;;;7.72;1.50;;;16.40;55.50;;;;;;6240198;28;20435;-79
2021/10/21 06:59:42;;;;;;;8.38;2.40;;;16.30;55.70;;;;;;6225475;28;20553;-77
2021/10/21 07:02:44;;;;;;;4.85;1.52;;;16.30;55.90;;;;;;6221359;28;20547;-78
2021/10/21 07:05:46;;;;;;;;;;;16.30;55.10;;;;;;6223373;28;20991;-81
2021/10/21 07:08:48;;;;;;;;;;;16.00;56.10;;;;;;6223245;28;19964;-80
2021/10/21 07:11:51;;;;;;;;;;;15.70;56.20;;;;;;6223037;28;20446;-80
2021/10/21 07:14:52;;;;;;;;;;;15.40;57.40;;;;;;6243454;28;19976;-79
2021/10/21 07:17:54;;;;;;;;;;;15.20;57.60;;;;;;6249513;28;19929;-81
2021/10/21 07:20:57;;;;;;;;;;;15.10;57.60;;;;;;6253109;28;19943;-80
2021/10/21 07:23:59;;;;;;;;;;;14.90;58.50;;;;;;6253196;28;19921;-79
2021/10/21 07:27:02;;;;;;;;;;;14.90;58.70;;;;;;6253004;28;20291;-80
2021/10/21 07:30:04;;;;;;;;;;;14.80;59.30;;;;;;6251548;28;19921;-79
2021/10/21 07:33:06;;;;;;;;;;;14.80;59.60;;;;;;6251304;28;19921;-79
2021/10/21 07:36:07;;;;;;;;;;;14.80;59.60;;;;;;6258712;28;20366;-80
2021/10/21 07:39:09;;;;;;;;;;;14.80;59.90;;;;;;6252016;28;20374;-80
2021/10/21 07:42:12;;;;;;;;;;;14.70;60.30;;;;;;6251123;28;20357;-80
2021/10/21 07:45:14;;;;;;;;;;;14.70;60.40;;;;;;6251302;28;19921;-79
2021/10/21 07:48:15;;;;;;;;;;;14.60;60.80;;;;;;6251317;28;19920;-79
2021/10/21 07:51:17;;;;;;;;;;;14.60;61.30;;;;;;6250182;28;19921;-79
2021/10/21 07:54:19;;;;;;;;;;;14.60;61.80;;;;;;6250453;28;19921;-79
2021/10/21 07:57:22;;;;;;;;;;;14.50;62.00;;;;;;6250989;28;20588;-79
2021/10/21 08:00:24;;;;;;;;;;;14.50;62.60;;;;;;6238164;28;19921;-82
2021/10/21 08:03:26;;;;;;;;;;;14.40;63.00;;;;;;6229518;28;20019;-80
2021/10/21 08:06:29;;;;;;;;;;;14.40;63.60;;;;;;6229521;28;19940;-79
2021/10/21 08:09:31;;;;;;;;;;;14.40;63.90;;;;;;6227880;28;19925;-80
2021/10/21 08:12:34;;;;;;;;;;;14.30;64.70;;;;;;6228588;28;19928;-80
2021/10/21 08:15:36;;;;;;;;;;;14.20;65.20;;;;;;6254041;28;19921;-80
2021/10/21 08:18:37;;;;;;;;;;;14.10;64.80;;;;;;6254004;28;19943;-80
2021/10/21 08:21:39;;;;;;;;;;;14.10;65.10;;;;;;6254226;28;20004;-81
2021/10/21 08:24:41;;;;;;;;;;;14.10;65.00;;;;;;6254156;28;19924;-80
2021/10/21 08:27:44;;;;;;;;;;;14.10;64.90;;;;;;6253435;28;19928;-78
2021/10/21 08:30:46;;;;;;;;;;;14.00;65.50;;;;;;6254211;28;20059;-81
2021/10/21 08:33:48;;;;;;;;;;;14.00;65.80;;;;;;6254944;28;19921;-82
2021/10/21 08:36:49;;;;;;;;;;;13.90;66.00;;;;;;6254025;28;19921;-79
2021/10/21 08:39:51;;;;;;;;;;;13.80;66.40;;;;;;6250407;28;19925;-79
2021/10/21 08:42:54;;;;;;;;;;;13.70;66.80;;;;;;6248443;28;20393;-81
2021/10/21 08:45:56;;;;;;;;;;;13.70;67.00;;;;;;6248506;28;19932;-79
2021/10/21 08:48:58;;;;;;;;;;;13.70;67.00;;;;;;6252437;28;19968;-81
2021/10/21 08:52:00;;;;;;;;;;;13.70;66.10;;;;;;6250802;28;19921;-82
2021/10/21 08:55:01;;;;;;;;;;;13.80;66.10;;;;;;6252141;28;20005;-80
2021/10/21 08:58:05;;;;;;;;;;;13.70;66.40;;;;;;6251829;28;19931;-81
2021/10/21 09:01:07;;;;;;;;;;;13.80;66.00;;;;;;6237865;28;20047;-80
2021/10/21 09:04:27;;;;;;;;;;;13.90;65.50;;;;;;6248134;28;19960;-80
2021/10/21 09:10:48;;;;;;;;;;;13.90;65.40;;;;;;6239167;28;19917;-80
2021/10/21 09:14:06;;;;;;;;;;;14.00;65.50;;;;;;6236487;28;20015;-80
2021/10/21 09:17:09;;;;;;;;;;;13.90;66.00;;;;;;6250648;28;19929;-80
2021/10/21 09:20:20;;;;;;;;;;;13.90;66.00;;;;;;6249884;28;19921;-80
2021/10/21 09:23:26;;;;;;;;;;;13.90;65.80;;;;;;6250804;28;19925;-80
2021/10/21 09:26:28;;;;;;;;;;;13.90;65.90;;;;;;6249470;28;20438;-81
2021/10/21 09:29:31;;;;;;;;;;;14.00;65.60;;;;;;6247218;28;20397;-80
2021/10/21 09:32:35;;;;;;;;;;;13.90;65.90;;;;;;6248109;28;20050;-82
2021/10/21 09:35:37;;;;;;;;;;;13.90;66.20;;;;;;6248468;28;19920;-80
2021/10/21 09:38:47;;;;;;;;;;;13.90;66.00;;;;;;6248200;28;19921;-79
2021/10/21 09:41:48;;;;;;;;;;;13.90;66.10;;;;;;6247913;28;20027;-79
2021/10/21 09:45:09;;;;;;;;;;;13.90;65.60;;;;;;6240645;28;19928;-80
2021/10/21 09:48:11;;;;;;;;;;;13.80;65.70;;;;;;6248247;28;19924;-79
2021/10/21 09:51:33;;;;;;;;;;;13.80;65.50;;;;;;6247694;28;19921;-80
2021/10/21 09:54:38;;;;;;;;;;;13.90;66.10;;;;;;6247513;28;19928;-79
2021/10/21 09:57:40;;;;;;;;;;;14.00;65.30;;;;;;6248518;28;19928;-80
2021/10/21 10:00:43;;;;;;;;;;;14.20;64.80;;;;;;6246228;28;20409;-81
2021/10/21 10:03:45;;;;;;;;;;;14.20;63.90;;;;;;6223630;28;20336;-80
2021/10/21 10:06:47;;;;;;;;;;;14.30;64.00;;;;;;6224126;28;20431;-80
2021/10/21 10:09:48;;;;;;;;;;;14.40;63.40;;;;;;6224352;28;19921;-80
2021/10/21 10:12:50;;;;;;;;;;;14.50;63.40;;;;;;6226915;28;19921;-80
2021/10/21 10:15:53;;;;;;;;;;;14.60;63.20;;;;;;6248833;28;20410;-80
2021/10/21 10:18:55;;;;;;;;;;;14.80;62.70;;;;;;6249327;28;19921;-80
2021/10/21 10:21:58;;;;;;;;;;;15.10;61.90;;;;;;6250983;28;19927;-79
2021/10/21 10:25:00;;;;;;;;;;;15.40;60.60;;;;;;6250213;28;19921;-82
2021/10/21 10:28:04;;;;;;;;;;;15.50;60.30;;;;;;6249522;28;20019;-80
2021/10/21 10:31:07;;;;;;;;;;;15.70;59.20;;;;;;6248216;28;19928;-80
2021/10/21 10:34:28;;;;;;;;;;;15.80;58.80;;;;;;6247770;28;19921;-80
2021/10/21 10:37:47;;;;;;;;;;;15.80;59.20;;;;;;6248565;28;19921;-79
2021/10/21 10:40:57;;;;;;;;;;;15.80;59.40;;;;;;6246511;28;20062;-79
2021/10/21 10:43:58;;;;;;;;;;;15.80;58.30;;;;;;6247254;28;19975;-80
2021/10/21 10:47:02;;;;;;;;;;;15.80;58.10;;;;;;6246842;28;20004;-80
2021/10/21 10:50:04;;;;;;;;;;;15.70;57.40;;;;;;6247002;28;19928;-80
2021/10/21 10:53:07;;;;;;;;;;;15.50;57.90;;;;;;6248524;28;20043;-80
2021/10/21 10:56:08;;;;;;;;;;;15.30;58.50;;;;;;6251550;28;19979;-78
2021/10/21 10:59:37;;;;;;;;;;;15.30;58.50;;;;;;6251399;28;20286;-79
2021/10/21 11:02:40;;;;;;;;;;;15.20;58.50;;;;;;6212905;28;19964;-79
2021/10/21 11:05:52;;;;;;;;;;;15.10;58.90;;;;;;6226173;28;19925;-79
2021/10/21 11:09:03;;;;;;;;;;;15.10;58.70;;;;;;6226663;28;20017;-79
2021/10/21 11:12:11;;;;;;;;;;;15.10;58.50;;;;;;6226742;28;19929;-79
2021/10/21 11:15:27;;;;;;;;;;;15.10;58.30;;;;;;6249487;28;19925;-79
2021/10/21 11:18:44;;;;;;;;;;;15.30;56.60;;;;;;6226270;28;19928;-79
2021/10/21 11:21:50;;;;;;;;;;;15.40;55.70;;;;;;6226062;28;19922;-80
2021/10/21 11:24:57;;;;;;;;;;;15.30;55.90;;;;;;6226338;28;20038;-79
2021/10/21 11:28:00;;;;;;;;;;;15.30;56.50;;;;;;6226156;28;20582;-79
2021/10/21 11:31:03;;;;;;;;;;;15.30;56.20;;;;;;6228172;28;19921;-79
2021/10/21 11:34:04;;;;;;;;;;;15.50;55.40;;;;;;6226392;28;20291;-79
2021/10/21 11:37:07;;;;;;;;;;;15.70;54.90;;;;;;6226657;28;19928;-79
2021/10/21 11:40:11;;;;;;;;;;;15.70;56.40;;;;;;6227114;28;20423;-83
2021/10/21 11:43:15;;;;;;;;;;;15.90;56.40;;;;;;6232865;28;20349;-79
2021/10/21 11:46:21;;;;;;;;;;;15.90;56.00;;;;;;6250531;28;19928;-78
2021/10/21 11:49:25;;;;;;;;;;;15.90;55.00;;;;;;6252322;28;19925;-79
2021/10/21 11:52:37;;;;;;;;;;;15.90;54.30;;;;;;6250766;28;20439;-76
2021/10/21 11:55:39;;;;;;;;;;;16.00;54.60;;;;;;6250352;28;19927;-77
2021/10/21 11:58:45;;;;;;;;;;;16.30;54.30;;;;;;6249235;28;19921;-77
2021/10/21 12:01:47;;;;;;;;;;;16.60;53.50;;;;;;6249667;28;19975;-77
2021/10/21 12:04:48;;;;;;;;;;;16.60;52.20;;;;;;6244746;28;20366;-78
2021/10/21 12:07:52;;;;;;;;;;;16.70;51.30;;;;;;6224643;28;19984;-77
2021/10/21 12:10:55;;;;;;;;;;;16.70;51.30;;;;;;6224546;28;20248;-77
2021/10/21 12:14:00;;;;;;;;;;;16.80;50.30;;;;;;6228873;28;20399;-77
2021/10/21 12:17:02;;;;;;;;;;;16.90;50.50;;;;;;6248985;28;19927;-77
2021/10/21 12:20:04;;;;;;;;;;;17.10;50.60;;;;;;6249101;28;20029;-77
2021/10/21 12:23:15;;;;;;;;;;;17.20;50.10;;;;;;6249629;28;20014;-78
2021/10/21 12:26:21;;;;;;;;;;;17.40;50.20;;;;;;6248169;28;20346;-77
2021/10/21 12:29:24;;;;;;;;;;;17.40;49.50;;;;;;6248846;28;20502;-77
2021/10/21 12:32:25;;;;;;;;;;;17.40;49.30;;;;;;6249042;28;19970;-77
2021/10/21 12:35:27;;;;;;;;;;;17.40;49.90;;;;;;6249396;28;19931;-77
2021/10/21 12:38:30;;;;;;;;;;;17.60;49.60;;;;;;6248521;28;20287;-77
2021/10/21 12:41:53;;;;;;;;;;;17.60;48.80;;;;;;6248939;28;20349;-77
2021/10/21 12:44:55;;;;;;;;;;;17.60;48.80;;;;;;6243457;28;19975;-79
2021/10/21 12:47:57;;;;;;;;;;;17.80;48.90;;;;;;6251251;28;19927;-77
2021/10/21 12:51:12;;;;;;;;;;;17.90;47.60;;;;;;6248257;28;19928;-77
2021/10/21 12:54:26;;;;;;;;;;;17.90;48.10;;;;;;6247642;28;20543;-77
2021/10/21 12:57:28;;;;;;;;;;;18.00;48.40;;;;;;6248178;28;20019;-78
2021/10/21 13:00:31;;;;;;;;;;;18.00;47.60;;;;;;6248172;28;20010;-77
2021/10/21 13:03:38;;;;;;;;;;;18.10;47.60;;;;;;6247617;28;19932;-77
2021/10/21 13:06:39;;;;;;;;;;;18.10;46.40;;;;;;6222548;28;19925;-77
2021/10/21 13:09:42;;;;;;;;;;;17.90;46.60;;;;;;6223287;28;19931;-77
2021/10/21 13:12:44;;;;;;;;;;;17.80;47.50;;;;;;6223395;28;19975;-78
2021/10/21 13:15:46;;;;;;;;;;;17.50;46.90;;;;;;6242219;28;19925;-77
2021/10/21 13:18:56;;;;;;;;;;;17.10;47.00;;;;;;6247152;28;19931;-77
2021/10/21 13:21:57;;;;;;;;;;;16.80;48.20;;;;;;6247497;28;19925;-78
2021/10/21 13:25:02;;;;;;;;;;;16.60;49.00;;;;;;6247241;28;19925;-78
2021/10/21 13:28:04;;;;;;;;;;;16.70;49.30;;;;;;6247205;28;19929;-77
2021/10/21 13:31:05;;;;;;;;;;;17.00;49.40;;;;;;6247357;28;20134;-78
2021/10/21 13:34:07;;;;;;;;;;;17.20;49.20;;;;;;6247371;28;19932;-78
2021/10/21 13:37:09;;;;;;;;;;;17.40;47.50;;;;;;6253702;28;19925;-77
2021/10/21 13:40:13;;;;;;;;;;;17.40;47.40;;;;;;6246757;28;20022;-77
2021/10/21 13:43:14;;;;;;;;;;;17.40;47.60;;;;;;6247513;28;19974;-77
2021/10/21 13:46:16;;;;;;;;;;;17.30;47.20;;;;;;6246697;28;20425;-79
2021/10/21 13:49:18;;;;;;;;;;;17.30;47.60;;;;;;6247005;28;19932;-79
2021/10/21 13:52:19;;;;;;;;;;;17.40;48.10;;;;;;6246952;28;19947;-78
2021/10/21 13:55:22;;;;;;;;;;;17.40;47.40;;;;;;6247219;28;20550;-78
2021/10/21 13:58:25;;;;;;;;;;;17.30;47.00;;;;;;6246963;28;19936;-78
2021/10/21 14:01:27;;;;;;;;;;;17.30;47.00;;;;;;6246576;28;19936;-79
2021/10/21 14:04:28;;;;;;;;;;;17.10;45.70;;;;;;6246729;28;20013;-79
2021/10/21 14:07:30;;;;;;;;;;;17.00;46.30;;;;;;6246578;28;19925;-78
2021/10/21 14:10:33;;;;;;;;;;;16.90;46.60;;;;;;6246840;28;19925;-78
2021/10/21 14:13:35;;;;;;;;;;;16.70;46.70;;;;;;6246477;28;19925;-79
2021/10/21 14:16:37;;;;;;;;;;;16.60;47.20;;;;;;6247042;28;19955;-78
2021/10/21 14:19:39;;;;;;;;;;;16.80;47.50;;;;;;6247071;28;19925;-79
2021/10/21 14:22:40;;;;;;;;;;;17.30;46.80;;;;;;6246279;28;19929;-79
2021/10/21 14:25:43;;;;;;;;;;;17.60;46.30;;;;;;6246398;28;20405;-78
2021/10/21 14:28:45;;;;;;;;;;;17.60;45.60;;;;;;6248988;28;19925;-78
2021/10/21 14:31:47;;;;;;;;;;;17.30;46.00;;;;;;6252241;28;20305;-78
2021/10/21 14:34:48;;;;;;;;;;;17.10;46.70;;;;;;6251363;28;19948;-78
2021/10/21 14:37:51;;;;;;;;;;;17.20;46.70;;;;;;6251524;28;20059;-77
2021/10/21 14:40:54;;;;;;;;;;;17.60;46.10;;;;;;6248550;28;19929;-76
2021/10/21 14:43:57;;;;;;;;;;;17.80;45.50;;;;;;6238669;28;19963;-78
2021/10/21 14:46:59;;;;;;;;;;;17.50;44.70;;;;;;6251988;28;19925;-77
2021/10/21 14:50:03;;;;;;;;;;;17.20;45.00;;;;;;6251533;28;19925;-80
2021/10/21 14:53:04;;;;;;;;;;;16.90;45.90;;;;;;6250885;28;19933;-78
2021/10/21 14:56:07;;;;;;;;;;;16.70;46.20;;;;;;6251177;28;19925;-80
2021/10/21 14:59:09;;;;;;;;;;;16.30;47.20;;;;;;6251023;28;20410;-78
2021/10/21 15:02:11;;;;;;;;;;;16.20;47.90;;;;;;6250745;28;20074;-81
2021/10/21 15:05:16;;;;;;;;;;;16.10;47.90;;;;;;6251463;28;19933;-78
2021/10/21 15:08:34;;;;;;;;;;;15.90;48.20;;;;;;6226720;28;20009;-78
2021/10/21 15:24:42;;;;;;;;;;;15.50;50.60;;;;;;6250548;28;20387;-78
2021/10/21 15:27:46;;;;;;;;;;;15.40;50.90;;;;;;6251113;28;19929;-78
2021/10/21 15:30:47;;;;;;;;;;;15.30;51.30;;;;;;6254193;28;19925;-80
2021/10/21 15:33:49;;;;;;;;;;;15.20;51.50;;;;;;6257199;28;20055;-81
2021/10/21 15:36:51;;;;;;;;;;;15.20;51.60;;;;;;6257189;28;20315;-81
2021/10/21 15:39:54;;;;;;;;;;;15.00;51.90;;;;;;6256737;28;19932;-81
2021/10/21 15:42:57;;;;;;;;;;;14.90;52.00;;;;;;6256290;28;19932;-81
2021/10/21 15:46:04;;;;;;;;;;;14.80;52.00;;;;;;6256780;28;20001;-80
2021/10/21 15:49:27;;;;;;;;;;;14.70;52.40;;;;;;6257185;28;19932;-81
2021/10/21 16:09:34;;;;;;;;;;;14.20;53.90;;;;;;6242594;28;19925;-80
2021/10/21 16:12:35;;;;;;;;;;;14.10;54.50;;;;;;6253974;28;19981;-80
2021/10/21 16:15:38;;;;;;;;;;;14.10;54.70;;;;;;6258088;28;20016;-80
2021/10/21 16:18:40;;;;;;;;;;;14.10;55.10;;;;;;6253554;28;19925;-80
2021/10/21 16:21:44;;;;;;;;;;;14.10;54.90;;;;;;6250613;28;19925;-80
2021/10/21 16:24:50;;;;;;;;;;;14.10;55.00;;;;;;6251581;28;20339;-80
2021/10/21 16:27:51;;;;;;;;;;;14.10;55.20;;;;;;6251933;28;19932;-80
2021/10/21 16:30:55;;;;;;;;;;;14.20;55.40;;;;;;6253193;28;19932;-80
2021/10/21 16:33:56;;;;;;;;;;;14.20;55.50;;;;;;6250599;28;19929;-81
2021/10/21 16:36:58;;;;;;;;;;;14.30;55.40;;;;;;6251936;28;19932;-80
2021/10/21 16:40:00;;;;;;;;;;;14.30;55.10;;;;;;6251639;28;19987;-79
2021/10/21 16:43:01;;;;;;;;;;;14.40;55.20;;;;;;6251465;28;19925;-80
2021/10/21 16:46:04;;;;;;;;;;;14.30;56.30;;;;;;6251017;28;19925;-80
2021/10/21 16:49:06;;;;;;;;;;;14.10;58.30;;;;;;6251429;28;19925;-79
2021/10/21 16:52:10;;;;;;;;;;;13.90;58.70;;;;;;6250342;28;20003;-80
2021/10/21 16:55:11;;;;;;;;;;;13.80;59.20;;;;;;6251761;28;20001;-79
2021/10/21 16:58:13;;;;;;;;;;;13.70;60.10;;;;;;6252098;28;19925;-80
2021/10/21 17:01:16;;;;;;;;;;;13.60;61.40;;;;;;6250513;28;20079;-80
2021/10/21 17:04:17;;;;;;;;;;;13.50;63.30;;;;;;6247360;28;19932;-81
2021/10/21 17:07:19;;;;;;;;;;;13.30;65.20;;;;;;6251532;28;19929;-79
2021/10/21 17:10:21;;;;;;;;;;;13.10;67.10;;;;;;6235626;28;19940;-79
2021/10/21 17:13:22;;;;;;;;;;;12.90;68.50;;;;;;6250562;28;19925;-80
2021/10/21 17:16:25;;;;;;;;;;;12.80;69.80;;;;;;6249731;28;20398;-80
2021/10/21 17:19:27;;;;;;;;;;;12.70;71.40;;;;;;6249805;28;20438;-81
2021/10/21 17:22:28;;;;;;;;;;;12.50;72.90;;;;;;6248313;28;19929;-80
2021/10/21 17:25:30;;;;;;;;;;;12.40;74.00;;;;;;6249207;28;19933;-80
2021/10/21 17:28:32;;;;;;;;;;;12.30;74.60;;;;;;6248947;28;19932;-80